Time;durP1;ratioP1;P1;durP2;ratioP2;P2;SDS_P1;SDS_P2;PMS_P1;PMS_P2;Temp;Humidity;BMP_temperature;BMP_pressure;BME280_temperature;BME280_humidity;BME280_pressure;Samples;Min_cycle;Max_cycle;Signal;HPM_P1;HPM_P2
2022/12/11 00:02:22;;;;;;;74.53;33.47;;;2.50;99.90;;;;;;5033726;28;20041;-73
2022/12/11 00:04:47;;;;;;;68.50;31.63;;;2.60;99.90;;;;;;5033634;28;20056;-73
2022/12/11 00:07:13;;;;;;;69.35;33.58;;;2.60;99.90;;;;;;5032617;28;20359;-72
2022/12/11 00:09:39;;;;;;;69.47;33.03;;;2.60;99.90;;;;;;5032089;28;20025;-73
2022/12/11 00:12:07;;;;;;;73.07;33.83;;;2.60;99.90;;;;;;5033674;28;20022;-72
2022/12/11 00:14:33;;;;;;;76.82;31.98;;;2.70;99.90;;;;;;5032667;28;20040;-72
2022/12/11 00:16:58;;;;;;;73.03;32.95;;;2.60;99.90;;;;;;5033566;28;20021;-73
2022/12/11 00:19:27;;;;;;;75.95;33.00;;;2.70;99.90;;;;;;5033346;28;20025;-72
2022/12/11 00:21:52;;;;;;;65.43;31.88;;;2.70;99.90;;;;;;5032794;28;20196;-73
2022/12/11 00:24:19;;;;;;;74.72;35.03;;;2.80;99.90;;;;;;5032117;28;20484;-73
2022/12/11 00:26:48;;;;;;;71.55;32.80;;;2.70;99.90;;;;;;5032810;28;20032;-72
2022/12/11 00:29:13;;;;;;;70.68;33.75;;;2.70;99.90;;;;;;5033188;28;20021;-72
2022/12/11 00:31:41;;;;;;;63.90;33.28;;;2.80;99.90;;;;;;5033149;28;20045;-72
2022/12/11 00:34:07;;;;;;;67.75;33.22;;;2.80;99.90;;;;;;5032618;28;20432;-72
2022/12/11 00:36:33;;;;;;;62.95;30.77;;;2.70;99.90;;;;;;5033382;28;20064;-72
2022/12/11 00:39:01;;;;;;;65.90;32.75;;;2.70;99.90;;;;;;5033452;28;20096;-72
2022/12/11 00:41:27;;;;;;;65.80;31.63;;;3.60;99.90;;;;;;5033003;28;20041;-72
2022/12/11 00:43:52;;;;;;;62.15;33.88;;;2.70;99.90;;;;;;5035091;28;20052;-72
2022/12/11 00:46:18;;;;;;;64.47;33.15;;;2.70;99.90;;;;;;5033121;28;20033;-73
2022/12/11 00:48:45;;;;;;;64.72;31.95;;;2.70;99.90;;;;;;5032270;28;20018;-72
2022/12/11 00:51:11;;;;;;;59.22;32.03;;;2.80;99.90;;;;;;5032609;28;20185;-72
2022/12/11 00:53:37;;;;;;;57.28;29.35;;;2.70;99.90;;;;;;5033298;28;20125;-73
2022/12/11 00:56:15;;;;;;;64.28;32.88;;;2.80;99.90;;;;;;5032142;28;20021;-73
2022/12/11 00:58:40;;;;;;;58.28;31.48;;;2.80;99.90;;;;;;5032757;28;20569;-72
2022/12/11 01:01:09;;;;;;;60.97;31.23;;;2.80;99.90;;;;;;5036642;28;20069;-74
2022/12/11 01:03:37;;;;;;;59.50;31.08;;;2.80;99.90;;;;;;5034924;28;20021;-73
2022/12/11 01:06:04;;;;;;;69.15;31.02;;;2.70;99.90;;;;;;5035033;28;20079;-71
2022/12/11 01:08:30;;;;;;;59.10;30.75;;;2.70;99.90;;;;;;5034785;28;20112;-73
2022/12/11 01:11:04;;;;;;;59.70;30.38;;;2.70;99.90;;;;;;5034491;28;20055;-73
2022/12/11 01:13:30;;;;;;;61.05;30.77;;;2.70;99.90;;;;;;5036766;28;20564;-73
2022/12/11 01:15:56;;;;;;;53.08;30.52;;;2.70;99.90;;;;;;5035375;28;20156;-71
2022/12/11 01:18:21;;;;;;;56.03;29.08;;;2.70;99.90;;;;;;5035892;28;20048;-74
2022/12/11 01:20:47;;;;;;;54.47;27.45;;;2.70;99.90;;;;;;5036367;28;20399;-73
2022/12/11 01:23:13;;;;;;;54.88;28.63;;;2.70;99.90;;;;;;5033876;28;20020;-73
2022/12/11 01:25:40;;;;;;;52.55;27.70;;;2.70;99.90;;;;;;5033422;28;20029;-72
2022/12/11 01:28:07;;;;;;;52.08;27.40;;;2.70;99.90;;;;;;5034610;28;20373;-72
2022/12/11 01:30:33;;;;;;;47.42;26.35;;;2.70;99.90;;;;;;5051346;28;20053;-72
2022/12/11 01:32:59;;;;;;;47.25;25.90;;;2.70;99.90;;;;;;5051634;28;20083;-72
2022/12/11 01:35:25;;;;;;;46.90;26.83;;;2.60;99.90;;;;;;5052264;28;20051;-73
2022/12/11 01:37:50;;;;;;;54.15;28.08;;;2.60;99.90;;;;;;5051493;28;20697;-72
2022/12/11 01:40:18;;;;;;;47.08;24.52;;;2.70;99.90;;;;;;5052098;28;20033;-72
2022/12/11 01:42:44;;;;;;;50.65;26.73;;;2.70;99.90;;;;;;5052048;28;20064;-72
2022/12/11 01:45:35;;;;;;;48.42;26.35;;;2.70;99.90;;;;;;5039844;28;20457;-72
2022/12/11 01:48:26;;;;;;;48.10;25.13;;;3.20;99.90;;;;;;5025386;28;20056;-72
2022/12/11 01:51:01;;;;;;;44.08;24.73;;;2.70;99.90;;;;;;5051213;28;20090;-72
2022/12/11 01:53:48;;;;;;;43.95;24.52;;;2.70;99.90;;;;;;5052194;28;20088;-72
2022/12/11 01:56:14;;;;;;;42.78;24.13;;;2.60;99.90;;;;;;5051257;28;20037;-73
2022/12/11 01:58:51;;;;;;;42.28;24.10;;;2.60;99.90;;;;;;5052058;28;20531;-73
2022/12/11 02:01:26;;;;;;;46.55;23.63;;;2.60;99.90;;;;;;5052111;28;20508;-72
2022/12/11 02:03:53;;;;;;;49.50;26.60;;;2.60;99.90;;;;;;5052184;28;20060;-72
2022/12/11 02:06:35;;;;;;;48.17;24.88;;;2.60;99.90;;;;;;5051162;28;20108;-73
2022/12/11 02:09:06;;;;;;;47.97;25.20;;;2.60;99.90;;;;;;5052018;28;20075;-73
2022/12/11 02:11:51;;;;;;;46.35;25.75;;;2.60;99.90;;;;;;5051990;28;20029;-71
2022/12/11 02:14:54;;;;;;;51.33;27.20;;;2.60;99.90;;;;;;5051529;28;20057;-72
2022/12/11 02:17:26;;;;;;;47.35;25.30;;;2.50;99.90;;;;;;5030744;28;20044;-73
2022/12/11 02:20:05;;;;;;;51.97;25.67;;;2.50;99.90;;;;;;5050751;28;20029;-72
2022/12/11 02:22:52;;;;;;;49.10;24.55;;;2.60;99.90;;;;;;5045245;28;20168;-72
2022/12/11 02:25:33;;;;;;;45.83;25.10;;;2.60;99.90;;;;;;5051688;28;20476;-72
2022/12/11 02:28:08;;;;;;;;;;;2.60;99.90;;;;;;5051962;28;20118;-72
2022/12/11 02:30:38;;;;;;;43.30;23.50;;;2.60;99.90;;;;;;5045811;28;19921;-72
2022/12/11 02:33:06;;;;;;;44.45;23.50;;;2.60;99.90;;;;;;5043727;28;20025;-73
2022/12/11 02:35:38;;;;;;;47.03;23.00;;;2.70;99.90;;;;;;5051405;28;20025;-72
2022/12/11 02:38:14;;;;;;;42.00;23.05;;;2.60;99.90;;;;;;5051666;28;20021;-72
2022/12/11 02:40:42;;;;;;;40.63;22.52;;;2.60;99.90;;;;;;5054905;28;20029;-72
2022/12/11 02:43:14;;;;;;;42.15;22.00;;;2.60;99.90;;;;;;5055232;28;20090;-73
2022/12/11 02:45:41;;;;;;;39.60;21.08;;;2.60;99.90;;;;;;5055415;28;20024;-73
2022/12/11 02:48:09;;;;;;;40.58;21.48;;;2.60;99.90;;;;;;5054264;28;20441;-73
2022/12/11 02:50:40;;;;;;;35.85;21.42;;;2.60;99.90;;;;;;5055534;28;20369;-73
2022/12/11 02:53:12;;;;;;;35.80;20.40;;;2.60;99.90;;;;;;5054876;28;20096;-72
2022/12/11 02:55:40;;;;;;;35.38;20.05;;;2.50;99.90;;;;;;5054668;28;20055;-73
2022/12/11 02:58:20;;;;;;;34.75;21.70;;;2.50;99.90;;;;;;5057917;28;20485;-72
2022/12/11 03:00:46;;;;;;;30.63;16.63;;;2.60;99.90;;;;;;5059073;28;20032;-73
2022/12/11 03:03:12;;;;;;;33.95;20.63;;;2.70;99.90;;;;;;5054381;28;20025;-73
2022/12/11 03:05:39;;;;;;;36.47;19.75;;;2.60;99.90;;;;;;5055159;28;20021;-72
2022/12/11 03:08:05;;;;;;;40.28;21.23;;;2.70;99.90;;;;;;5054522;28;20033;-72
2022/12/11 03:10:31;;;;;;;34.33;20.70;;;2.70;99.90;;;;;;5054011;28;20112;-73
2022/12/11 03:12:58;;;;;;;38.47;21.55;;;2.80;99.90;;;;;;5054444;28;20116;-72
2022/12/11 03:15:48;;;;;;;35.53;22.00;;;2.60;99.90;;;;;;5054039;28;20560;-74
2022/12/11 03:18:22;;;;;;;41.17;22.25;;;2.60;99.90;;;;;;5054621;28;20432;-73
2022/12/11 03:21:13;;;;;;;37.90;22.08;;;2.60;99.90;;;;;;5054823;28;20062;-73
2022/12/11 03:23:53;;;;;;;40.60;22.95;;;2.60;99.90;;;;;;5054375;28;20132;-72
2022/12/11 03:26:19;;;;;;;41.65;22.77;;;2.60;99.90;;;;;;5054961;28;20017;-73
2022/12/11 03:28:55;;;;;;;40.22;22.40;;;2.50;99.90;;;;;;5054641;28;20056;-74
2022/12/11 03:31:29;;;;;;;40.13;22.38;;;2.50;99.90;;;;;;5053547;28;20081;-72
2022/12/11 03:33:59;;;;;;;41.25;23.65;;;2.50;99.90;;;;;;5054017;28;20021;-73
2022/12/11 03:36:32;;;;;;;40.08;21.02;;;2.50;99.90;;;;;;5053665;28;20029;-73
2022/12/11 03:39:06;;;;;;;40.97;22.85;;;2.50;99.90;;;;;;5053702;28;20104;-73
2022/12/11 03:41:33;;;;;;;44.03;24.33;;;2.50;99.90;;;;;;5054060;28;20036;-73
2022/12/11 03:44:03;;;;;;;41.70;23.33;;;2.50;99.90;;;;;;5053009;28;20027;-74
2022/12/11 03:46:32;;;;;;;50.65;25.55;;;2.50;99.90;;;;;;5054116;28;20376;-72
2022/12/11 03:49:01;;;;;;;44.05;24.00;;;2.50;99.90;;;;;;5053559;28;20075;-72
2022/12/11 03:51:30;;;;;;;45.15;24.63;;;2.50;99.90;;;;;;5053488;28;20036;-72
2022/12/11 03:53:56;;;;;;;41.92;23.70;;;2.50;99.90;;;;;;5051796;28;20465;-73
2022/12/11 03:56:25;;;;;;;44.95;23.83;;;2.40;99.90;;;;;;5041712;28;20037;-72
2022/12/11 03:58:51;;;;;;;40.65;23.13;;;2.50;99.90;;;;;;5052417;28;20115;-73
2022/12/11 04:01:16;;;;;;;44.70;24.25;;;2.50;99.90;;;;;;5040265;28;20120;-73
2022/12/11 04:03:42;;;;;;;41.55;23.35;;;2.40;99.90;;;;;;5053888;28;20503;-73
2022/12/11 04:06:08;;;;;;;43.92;24.33;;;2.40;99.90;;;;;;5053943;28;20048;-73
2022/12/11 04:08:33;;;;;;;41.28;22.45;;;2.40;99.90;;;;;;5055060;28;20025;-73
2022/12/11 04:15:00;;;;;;;41.20;22.75;;;2.40;99.90;;;;;;5043641;28;20381;-74
2022/12/11 04:16:37;;;;;;;41.83;22.73;;;2.40;99.90;;;;;;5047427;28;20033;-73
2022/12/11 04:24:31;;;;;;;45.83;23.38;;;2.40;99.90;;;;;;5053548;28;20028;-72
2022/12/11 04:26:57;;;;;;;38.75;21.88;;;2.40;99.90;;;;;;5053059;28;20465;-72
2022/12/11 04:29:22;;;;;;;40.63;22.02;;;2.40;99.90;;;;;;5053339;28;20021;-73
2022/12/11 04:31:49;;;;;;;35.20;21.60;;;2.40;99.90;;;;;;5053227;28;20073;-73
2022/12/11 04:34:15;;;;;;;36.40;22.48;;;2.40;99.90;;;;;;5052487;28;20031;-72
2022/12/11 04:36:40;;;;;;;39.22;22.75;;;2.40;99.90;;;;;;5053260;28;20029;-73
2022/12/11 04:39:06;;;;;;;38.22;22.00;;;2.40;99.90;;;;;;5052690;28;20013;-73
2022/12/11 04:41:35;;;;;;;37.15;21.70;;;2.40;99.90;;;;;;5053038;28;20059;-72
2022/12/11 04:44:01;;;;;;;34.53;21.00;;;2.40;99.90;;;;;;5052755;28;20380;-73
2022/12/11 04:46:27;;;;;;;42.10;22.85;;;2.40;99.90;;;;;;5053223;28;20021;-73
2022/12/11 04:48:53;;;;;;;47.90;23.98;;;2.40;99.90;;;;;;5051654;28;20037;-72
2022/12/11 04:51:19;;;;;;;41.58;23.23;;;2.40;99.90;;;;;;5053379;28;20035;-73
2022/12/11 04:53:45;;;;;;;40.88;23.92;;;2.40;99.90;;;;;;5052644;28;20017;-72
2022/12/11 04:56:15;;;;;;;38.13;23.40;;;2.40;99.90;;;;;;5057559;28;20029;-73
2022/12/11 04:58:42;;;;;;;43.10;23.08;;;2.40;99.90;;;;;;5054024;28;20024;-72
2022/12/11 05:01:10;;;;;;;38.15;22.17;;;2.40;99.90;;;;;;5039995;28;20029;-73
2022/12/11 05:03:35;;;;;;;41.17;22.80;;;2.50;99.90;;;;;;5052628;28;20438;-72
2022/12/11 05:06:01;;;;;;;37.63;22.13;;;2.40;99.90;;;;;;5038299;28;20021;-72
2022/12/11 05:08:27;;;;;;;36.67;21.63;;;2.40;99.90;;;;;;5052273;28;20021;-74
2022/12/11 05:10:57;;;;;;;40.60;22.23;;;2.40;99.90;;;;;;5052365;28;20024;-72
2022/12/11 05:13:23;;;;;;;35.55;21.15;;;2.40;99.90;;;;;;5052757;28;20082;-72
2022/12/11 05:15:48;;;;;;;39.08;20.27;;;2.40;99.90;;;;;;5051586;28;20053;-74
2022/12/11 05:18:14;;;;;;;33.25;18.33;;;2.30;99.90;;;;;;5052099;28;20440;-73
2022/12/11 05:20:40;;;;;;;33.72;19.08;;;2.40;99.90;;;;;;5052251;28;20025;-72
2022/12/11 05:23:05;;;;;;;34.55;19.30;;;2.40;99.90;;;;;;5051497;28;20013;-73
2022/12/11 05:25:31;;;;;;;35.58;19.48;;;2.30;99.90;;;;;;5052753;28;20025;-72
2022/12/11 05:27:57;;;;;;;32.25;20.15;;;2.30;99.90;;;;;;5051919;28;20109;-72
2022/12/11 05:30:22;;;;;;;36.85;21.92;;;2.30;99.90;;;;;;5051464;28;20053;-72
2022/12/11 05:32:48;;;;;;;38.33;22.17;;;2.30;99.90;;;;;;5052444;28;20031;-72
2022/12/11 05:35:14;;;;;;;35.00;20.95;;;2.30;99.90;;;;;;5051847;28;20021;-73
2022/12/11 05:37:39;;;;;;;36.22;20.90;;;2.30;99.90;;;;;;5051625;28;20036;-74
2022/12/11 05:40:06;;;;;;;36.50;22.17;;;2.30;99.90;;;;;;5051818;28;20416;-73
2022/12/11 05:42:32;;;;;;;38.28;21.27;;;2.30;99.90;;;;;;5051791;28;20036;-72
2022/12/11 05:44:58;;;;;;;39.90;23.23;;;2.20;99.90;;;;;;5051172;28;20496;-73
2022/12/11 05:47:24;;;;;;;41.38;22.02;;;2.30;99.90;;;;;;5048308;28;20026;-73
2022/12/11 05:49:51;;;;;;;46.20;24.20;;;2.30;99.90;;;;;;5028640;28;20356;-73
2022/12/11 05:52:16;;;;;;;42.95;24.13;;;2.30;99.90;;;;;;5022242;28;20072;-72
2022/12/11 05:54:42;;;;;;;44.42;24.45;;;2.30;99.90;;;;;;5022799;28;20069;-73
2022/12/11 05:57:08;;;;;;;45.63;25.70;;;2.30;99.90;;;;;;5027930;28;20038;-72
2022/12/11 05:59:33;;;;;;;44.80;25.20;;;2.30;99.90;;;;;;5029509;28;20026;-72
2022/12/11 06:01:59;;;;;;;45.65;25.17;;;2.30;99.90;;;;;;5029709;28;20037;-73
2022/12/11 06:04:25;;;;;;;46.35;24.30;;;2.30;99.90;;;;;;5028983;28;20025;-73
2022/12/11 06:06:53;;;;;;;42.90;22.90;;;2.30;99.90;;;;;;5024055;28;20120;-73
2022/12/11 06:09:18;;;;;;;39.63;22.88;;;2.30;99.90;;;;;;5025320;28;20478;-73
2022/12/11 06:11:44;;;;;;;43.10;25.25;;;2.30;99.90;;;;;;5027190;28;20087;-72
2022/12/11 06:14:10;;;;;;;39.65;23.33;;;2.20;99.90;;;;;;5023793;28;20033;-73
2022/12/11 06:16:36;;;;;;;49.10;25.33;;;2.20;99.90;;;;;;5025394;28;20385;-73
2022/12/11 06:19:02;;;;;;;46.40;24.58;;;2.20;99.90;;;;;;5029698;28;20014;-73
2022/12/11 06:21:30;;;;;;;44.53;24.15;;;2.20;99.90;;;;;;5032725;28;20029;-72
2022/12/11 06:23:57;;;;;;;43.28;23.35;;;2.20;99.90;;;;;;5032950;28;20032;-73
2022/12/11 06:26:23;;;;;;;36.35;21.48;;;2.20;99.90;;;;;;5032113;28;20095;-73
2022/12/11 06:28:49;;;;;;;38.45;21.40;;;2.20;99.90;;;;;;5033422;28;20032;-72
2022/12/11 06:31:15;;;;;;;42.55;22.15;;;1.50;99.90;;;;;;5033158;28;20076;-73
2022/12/11 06:33:40;;;;;;;37.25;21.05;;;2.20;99.90;;;;;;5032474;28;20057;-73
2022/12/11 06:36:09;;;;;;;42.33;22.40;;;2.20;99.90;;;;;;5035950;28;20475;-72
2022/12/11 06:38:35;;;;;;;40.63;21.48;;;2.20;99.90;;;;;;5035365;28;20047;-73
2022/12/11 06:41:03;;;;;;;34.60;21.13;;;2.10;99.90;;;;;;5033027;28;20552;-73
2022/12/11 06:43:30;;;;;;;37.38;21.17;;;2.20;99.90;;;;;;5034199;28;20393;-73
2022/12/11 06:45:55;;;;;;;36.72;20.30;;;2.10;99.90;;;;;;5037324;28;20025;-73
2022/12/11 06:48:21;;;;;;;39.30;21.42;;;2.20;99.90;;;;;;5032875;28;20100;-72
2022/12/11 06:50:47;;;;;;;35.97;21.50;;;2.20;99.90;;;;;;5033734;28;20045;-73
2022/12/11 06:53:13;;;;;;;39.00;21.27;;;2.10;99.90;;;;;;5034005;28;20018;-73
2022/12/11 06:55:40;;;;;;;36.42;20.10;;;2.20;99.90;;;;;;5034210;28;20363;-73
2022/12/11 06:58:07;;;;;;;36.15;20.40;;;2.20;99.90;;;;;;5036433;28;20024;-74
2022/12/11 07:00:34;;;;;;;42.75;23.33;;;2.20;99.90;;;;;;5032765;28;20561;-73
2022/12/11 07:03:00;;;;;;;45.67;22.73;;;2.20;99.90;;;;;;5033399;28;20025;-73
2022/12/11 07:05:25;;;;;;;39.15;20.90;;;2.30;99.90;;;;;;5032791;28;20025;-73
2022/12/11 07:07:53;;;;;;;41.03;22.25;;;2.30;99.90;;;;;;5031638;28;20029;-73
2022/12/11 07:10:19;;;;;;;40.95;21.85;;;2.20;99.90;;;;;;5033691;28;20049;-73
2022/12/11 07:12:45;;;;;;;40.60;23.23;;;2.30;99.90;;;;;;5032445;28;20033;-73
2022/12/11 07:15:11;;;;;;;42.58;23.38;;;2.20;99.90;;;;;;5031789;28;20014;-72
2022/12/11 07:17:36;;;;;;;44.53;23.73;;;2.20;99.90;;;;;;5032641;28;20021;-73
2022/12/11 07:20:03;;;;;;;44.85;24.10;;;2.20;99.90;;;;;;5032260;28;20112;-73
2022/12/11 07:22:28;;;;;;;38.47;21.95;;;2.20;99.90;;;;;;5032157;28;20107;-73
2022/12/11 07:24:54;;;;;;;42.83;23.55;;;2.20;99.90;;;;;;5030628;28;20537;-73
2022/12/11 07:27:19;;;;;;;40.05;22.45;;;2.30;99.90;;;;;;5032531;28;20026;-73
2022/12/11 07:29:45;;;;;;;41.42;22.90;;;2.20;99.90;;;;;;5031003;28;20067;-74
2022/12/11 07:32:11;;;;;;;40.78;22.85;;;2.20;99.90;;;;;;5032314;28;20069;-76
2022/12/11 07:34:36;;;;;;;40.63;22.58;;;2.20;99.90;;;;;;5031638;28;20025;-73
2022/12/11 07:37:02;;;;;;;42.25;24.35;;;2.20;99.90;;;;;;5034273;28;20036;-73
2022/12/11 07:39:28;;;;;;;41.47;24.20;;;2.20;99.90;;;;;;5031752;28;20026;-74
2022/12/11 07:41:54;;;;;;;42.90;22.77;;;2.20;99.90;;;;;;5032246;28;20139;-73
2022/12/11 07:44:19;;;;;;;41.55;23.73;;;2.20;99.90;;;;;;5031819;28;20034;-74
2022/12/11 07:46:45;;;;;;;42.63;24.02;;;2.20;99.90;;;;;;5033119;28;20112;-73
2022/12/11 07:49:11;;;;;;;41.80;23.98;;;2.20;99.90;;;;;;5034576;28;20490;-73
2022/12/11 07:51:37;;;;;;;41.25;22.50;;;2.20;99.90;;;;;;5032720;28;20465;-74
2022/12/11 07:54:06;;;;;;;40.33;23.08;;;2.20;99.90;;;;;;5034416;28;20116;-73
2022/12/11 07:56:32;;;;;;;36.90;22.70;;;2.20;99.90;;;;;;5032181;28;20030;-73
2022/12/11 07:59:00;;;;;;;38.78;22.45;;;2.20;99.90;;;;;;5031271;28;20096;-73
2022/12/11 08:01:28;;;;;;;38.85;22.15;;;2.20;99.90;;;;;;5032415;28;20099;-74
2022/12/11 08:03:54;;;;;;;38.40;22.05;;;2.30;99.90;;;;;;5033535;28;20454;-73
2022/12/11 08:06:28;;;;;;;35.90;20.50;;;2.30;99.90;;;;;;5033403;28;20033;-74
2022/12/11 08:08:55;;;;;;;38.80;21.65;;;2.30;99.90;;;;;;5030468;28;20045;-76
2022/12/11 08:11:20;;;;;;;38.80;22.60;;;2.30;99.90;;;;;;5030813;28;20049;-74
2022/12/11 08:13:46;;;;;;;36.00;21.10;;;2.30;99.90;;;;;;5031973;28;20064;-74
2022/12/11 08:16:13;;;;;;;36.25;20.88;;;2.30;99.90;;;;;;5031461;28;20025;-73
2022/12/11 08:18:40;;;;;;;38.92;20.65;;;2.30;99.90;;;;;;5030923;28;20025;-75
2022/12/11 08:21:08;;;;;;;37.35;21.50;;;2.30;99.90;;;;;;5031910;28;20095;-73
2022/12/11 08:23:34;;;;;;;32.20;20.08;;;2.30;99.90;;;;;;5030265;28;20032;-72
2022/12/11 08:26:02;;;;;;;33.70;20.85;;;2.30;99.90;;;;;;5029238;28;20029;-74
2022/12/11 08:28:28;;;;;;;36.97;20.65;;;2.30;99.90;;;;;;5030069;28;20025;-73
2022/12/11 08:30:54;;;;;;;32.58;19.98;;;2.40;99.90;;;;;;5030516;28;20049;-75
2022/12/11 08:33:25;;;;;;;37.88;21.52;;;2.30;99.90;;;;;;5030199;28;20026;-74
2022/12/11 08:35:51;;;;;;;39.55;22.55;;;2.40;99.90;;;;;;5031770;28;20021;-76
2022/12/11 08:38:17;;;;;;;33.95;20.80;;;2.40;99.90;;;;;;5031807;28;20029;-76
2022/12/11 08:40:42;;;;;;;40.00;23.02;;;2.40;99.90;;;;;;5031564;28;20454;-74
2022/12/11 08:43:08;;;;;;;42.15;23.95;;;2.50;99.90;;;;;;5033420;28;20031;-74
2022/12/11 08:45:33;;;;;;;35.75;20.45;;;2.40;99.90;;;;;;5031445;28;20027;-75
2022/12/11 08:47:59;;;;;;;40.25;23.90;;;2.50;99.90;;;;;;5030887;28;20083;-75
2022/12/11 08:50:25;;;;;;;42.67;24.10;;;2.50;99.90;;;;;;5032590;28;20029;-74
2022/12/11 08:52:52;;;;;;;40.55;24.27;;;2.50;99.90;;;;;;5032310;28;20025;-74
2022/12/11 08:55:18;;;;;;;38.97;23.63;;;2.50;99.90;;;;;;5031047;28;20040;-74
2022/12/11 08:57:44;;;;;;;43.80;24.88;;;2.50;99.90;;;;;;5033441;28;20017;-75
2022/12/11 09:00:11;;;;;;;40.97;24.80;;;2.60;99.90;;;;;;5030649;28;20048;-74
2022/12/11 09:02:37;;;;;;;38.55;23.20;;;2.60;99.90;;;;;;5031998;28;20037;-76
2022/12/11 09:05:06;;;;;;;38.65;24.40;;;2.60;99.90;;;;;;5031085;28;20029;-75
2022/12/11 09:07:33;;;;;;;37.05;22.92;;;2.60;99.90;;;;;;5028843;28;20381;-75
2022/12/11 09:09:58;;;;;;;41.60;24.10;;;2.70;99.90;;;;;;5029316;28;20017;-75
2022/12/11 09:12:25;;;;;;;40.20;24.48;;;2.60;99.90;;;;;;5030714;28;20080;-78
2022/12/11 09:14:50;;;;;;;36.75;23.25;;;2.70;99.90;;;;;;5029488;28;20462;-76
2022/12/11 09:17:16;;;;;;;40.38;22.52;;;2.70;99.90;;;;;;5031326;28;20034;-76
2022/12/11 09:19:42;;;;;;;39.75;23.25;;;2.80;99.90;;;;;;5030508;28;20097;-75
2022/12/11 09:22:10;;;;;;;35.15;21.73;;;2.80;99.90;;;;;;5030389;28;20033;-74
2022/12/11 09:24:36;;;;;;;39.38;21.77;;;2.80;99.90;;;;;;5029977;28;20018;-75
2022/12/11 09:27:04;;;;;;;37.38;22.75;;;2.80;99.90;;;;;;5031838;28;20051;-76
2022/12/11 09:29:30;;;;;;;35.92;22.38;;;2.90;99.90;;;;;;5032228;28;20026;-77
2022/12/11 09:31:56;;;;;;;39.30;21.73;;;2.90;99.90;;;;;;5031585;28;20041;-75
2022/12/11 09:34:22;;;;;;;34.60;21.67;;;2.90;99.90;;;;;;5030927;28;20474;-74
2022/12/11 09:36:48;;;;;;;39.17;21.00;;;2.90;99.90;;;;;;5026040;28;20033;-77
2022/12/11 09:39:15;;;;;;;36.28;20.42;;;2.90;99.90;;;;;;5030312;28;20025;-77
2022/12/11 09:42:22;;;;;;;42.05;21.42;;;2.90;99.90;;;;;;5027699;28;20041;-74
2022/12/11 09:44:53;;;;;;;35.33;19.52;;;2.90;99.90;;;;;;5025596;28;20029;-75
2022/12/11 09:47:41;;;;;;;35.60;19.55;;;2.90;99.90;;;;;;5028991;28;20025;-74
2022/12/11 09:50:10;;;;;;;37.10;19.92;;;2.90;99.90;;;;;;5030557;28;20041;-75
2022/12/11 09:52:48;;;;;;;36.03;20.92;;;3.40;99.90;;;;;;5033969;28;20021;-74
2022/12/11 09:55:18;;;;;;;30.30;18.73;;;2.90;99.90;;;;;;5036556;28;20020;-74
2022/12/11 09:57:52;;;;;;;34.03;18.42;;;3.00;99.90;;;;;;5034535;28;20473;-74
2022/12/11 10:00:42;;;;;;;34.13;19.70;;;3.00;99.90;;;;;;5036281;28;20033;-75
2022/12/11 10:03:31;;;;;;;33.05;18.38;;;3.00;99.90;;;;;;5034849;28;20032;-75
2022/12/11 10:06:11;;;;;;;33.20;19.23;;;3.10;99.90;;;;;;5037225;28;20087;-73
2022/12/11 10:09:02;;;;;;;32.45;18.30;;;3.10;99.90;;;;;;5034676;28;20049;-74
2022/12/11 10:11:52;;;;;;;33.00;17.25;;;3.10;99.90;;;;;;5034258;28;20025;-74
2022/12/11 10:14:51;;;;;;;31.60;17.27;;;3.20;99.90;;;;;;5035206;28;20476;-74
2022/12/11 10:17:31;;;;;;;36.75;17.90;;;3.20;99.90;;;;;;5035114;28;20017;-72
2022/12/11 10:20:19;;;;;;;29.30;17.47;;;3.20;99.90;;;;;;5035836;28;20017;-73
2022/12/11 10:22:47;;;;;;;31.35;18.25;;;3.30;99.90;;;;;;5036148;28;20304;-73
2022/12/11 10:25:25;;;;;;;31.73;17.67;;;3.30;99.90;;;;;;5035391;28;20025;-74
2022/12/11 10:27:50;;;;;;;31.48;18.48;;;3.20;99.90;;;;;;5035792;28;20033;-74
2022/12/11 10:30:20;;;;;;;34.35;18.75;;;3.20;99.90;;;;;;5036651;28;20053;-74
2022/12/11 10:33:23;;;;;;;34.87;18.30;;;3.30;99.90;;;;;;5034138;28;20101;-73
2022/12/11 10:35:56;;;;;;;32.63;18.15;;;3.30;99.90;;;;;;5037342;28;20112;-73
2022/12/11 10:38:32;;;;;;;39.25;19.17;;;3.40;99.90;;;;;;5037430;28;20053;-73
2022/12/11 10:41:04;;;;;;;34.80;19.67;;;3.40;99.90;;;;;;5028763;28;20044;-73
2022/12/11 10:43:41;;;;;;;36.80;19.15;;;3.40;99.90;;;;;;5030955;28;20037;-74
2022/12/11 10:46:24;;;;;;;37.70;19.90;;;3.50;99.90;;;;;;5030473;28;20445;-73
2022/12/11 10:48:55;;;;;;;40.22;20.77;;;3.50;99.90;;;;;;5025978;28;20068;-76
2022/12/11 10:51:24;;;;;;;39.47;20.73;;;3.50;99.90;;;;;;5036070;28;20033;-73
2022/12/11 10:53:56;;;;;;;39.95;20.35;;;3.60;99.90;;;;;;5033819;28;20028;-74
2022/12/11 10:56:30;;;;;;;35.95;21.35;;;3.60;99.90;;;;;;5033706;28;20036;-74
2022/12/11 10:58:57;;;;;;;37.88;20.75;;;3.60;99.90;;;;;;5033714;28;20021;-72
2022/12/11 11:01:25;;;;;;;37.95;20.38;;;3.60;99.90;;;;;;5033100;28;20045;-74
2022/12/11 11:03:58;;;;;;;40.03;21.42;;;3.60;99.90;;;;;;5031452;28;20029;-73
2022/12/11 11:06:25;;;;;;;45.10;22.45;;;3.60;99.90;;;;;;5029053;28;20017;-75
2022/12/11 11:08:53;;;;;;;39.97;22.02;;;3.60;99.90;;;;;;5031462;28;20122;-73
2022/12/11 11:11:25;;;;;;;43.17;21.73;;;3.60;99.90;;;;;;5032647;28;20033;-73
2022/12/11 11:14:02;;;;;;;48.75;23.88;;;3.70;99.90;;;;;;5030653;28;20061;-73
2022/12/11 11:16:28;;;;;;;45.60;23.67;;;3.70;99.90;;;;;;5032419;28;20037;-73
2022/12/11 11:18:56;;;;;;;48.80;24.13;;;3.70;99.90;;;;;;5033269;28;20378;-73
2022/12/11 11:21:25;;;;;;;51.78;24.92;;;3.70;99.90;;;;;;5031740;28;20481;-73
2022/12/11 11:23:57;;;;;;;51.30;24.40;;;3.70;99.90;;;;;;5032372;28;20021;-73
2022/12/11 11:26:23;;;;;;;50.05;25.08;;;3.70;99.90;;;;;;5033132;28;20033;-75
2022/12/11 11:28:53;;;;;;;49.03;23.60;;;3.60;99.90;;;;;;5031895;28;20071;-73
2022/12/11 11:31:21;;;;;;;48.83;25.48;;;3.60;99.90;;;;;;5032657;28;20057;-73
2022/12/11 11:34:02;;;;;;;51.00;26.10;;;3.60;99.90;;;;;;5032834;28;20041;-74
2022/12/11 11:36:31;;;;;;;55.60;26.48;;;3.50;99.90;;;;;;5031812;28;20048;-74
2022/12/11 11:39:26;;;;;;;54.15;25.60;;;3.50;99.90;;;;;;5034909;28;20060;-75
2022/12/11 11:42:03;;;;;;;55.30;25.40;;;3.50;99.90;;;;;;5033725;28;20045;-76
2022/12/11 11:44:38;;;;;;;51.75;25.65;;;4.00;99.90;;;;;;5036739;28;20485;-74
2022/12/11 11:47:09;;;;;;;55.67;24.60;;;3.50;99.90;;;;;;5032587;28;20029;-74
2022/12/11 11:49:35;;;;;;;54.05;24.90;;;3.50;99.90;;;;;;5032983;28;20024;-74
2022/12/11 11:52:26;;;;;;;48.65;24.73;;;3.20;99.90;;;;;;5033766;28;20037;-74
2022/12/11 11:55:17;;;;;;;51.83;24.48;;;3.50;99.90;;;;;;5032675;28;20018;-74
2022/12/11 11:58:01;;;;;;;48.10;24.17;;;3.50;99.90;;;;;;5035737;28;20551;-75
2022/12/11 12:00:29;;;;;;;51.85;24.67;;;3.50;99.90;;;;;;5032258;28;20029;-75
2022/12/11 12:02:58;;;;;;;53.42;23.88;;;3.50;99.90;;;;;;5030944;28;20037;-75
2022/12/11 12:05:52;;;;;;;54.97;25.25;;;3.50;99.90;;;;;;5031923;28;20033;-74
2022/12/11 12:08:21;;;;;;;51.85;23.50;;;3.50;99.90;;;;;;5029475;28;20057;-74
2022/12/11 12:11:02;;;;;;;53.25;24.55;;;3.40;99.90;;;;;;5029586;28;20478;-74
2022/12/11 12:13:30;;;;;;;52.35;24.77;;;3.50;99.90;;;;;;5030625;28;20252;-74
2022/12/11 12:15:58;;;;;;;48.63;23.60;;;3.50;99.90;;;;;;5030577;28;20430;-73
2022/12/11 12:19:12;;;;;;;47.72;23.42;;;3.50;99.90;;;;;;5030548;28;20025;-73
2022/12/11 12:21:43;;;;;;;53.13;22.88;;;3.50;99.90;;;;;;5012293;28;20064;-73
2022/12/11 12:24:32;;;;;;;48.22;22.63;;;3.40;99.90;;;;;;5028713;28;20022;-73
2022/12/11 12:27:18;;;;;;;46.25;22.92;;;3.40;99.90;;;;;;5031529;28;20370;-75
2022/12/11 12:30:03;;;;;;;44.33;22.20;;;3.40;99.90;;;;;;5030715;28;20374;-74
2022/12/11 12:32:39;;;;;;;45.13;22.02;;;3.40;99.90;;;;;;5031184;28;20076;-74
2022/12/11 12:35:33;;;;;;;44.63;22.10;;;3.30;99.90;;;;;;5029453;28;20017;-74
2022/12/11 12:38:09;;;;;;;49.88;24.20;;;3.30;99.90;;;;;;5028557;28;20034;-74
2022/12/11 12:41:19;;;;;;;50.50;23.15;;;3.30;99.90;;;;;;5033374;28;20116;-72
2022/12/11 12:43:48;;;;;;;48.23;24.77;;;3.30;99.90;;;;;;5032973;28;20489;-74
2022/12/11 12:46:44;;;;;;;46.15;22.42;;;3.30;99.90;;;;;;5033195;28;20026;-74
2022/12/11 12:49:15;;;;;;;44.05;21.73;;;3.30;99.90;;;;;;5036766;28;20025;-74
2022/12/11 12:51:43;;;;;;;46.38;22.50;;;3.30;99.90;;;;;;5031177;28;20021;-73
2022/12/11 12:54:14;;;;;;;48.88;23.52;;;3.30;99.90;;;;;;5032004;28;20053;-75
2022/12/11 12:56:42;;;;;;;43.10;22.63;;;3.30;99.90;;;;;;5033637;28;20022;-74
2022/12/11 12:59:23;;;;;;;48.45;23.50;;;3.30;99.90;;;;;;5036188;28;20034;-76
2022/12/11 13:01:51;;;;;;;;;;;3.30;99.90;;;;;;5030602;28;20083;-74
2022/12/11 13:04:42;;;;;;;48.25;22.48;;;3.30;99.90;;;;;;5032657;28;20005;-73